createdAt,value
2023-02-09T00:01:19.536Z,99967.56
2023-02-09T00:03:45.975Z,99971.31
2023-02-09T00:06:12.955Z,99973.63
2023-02-09T00:08:39.287Z,99968.50
2023-02-09T00:11:06.348Z,99955.81
2023-02-09T00:13:32.672Z,99969.75
2023-02-09T00:16:01.507Z,99960.38
2023-02-09T00:18:28.648Z,99960.28
2023-02-09T00:20:55.562Z,99957.50
2023-02-09T00:23:21.897Z,99961.44
2023-02-09T00:25:48.214Z,99962.50
2023-02-09T00:28:14.582Z,99955.75
2023-02-09T00:30:41.013Z,99954.13
2023-02-09T00:33:07.380Z,99952.97
2023-02-09T00:35:33.681Z,99955.06
2023-02-09T00:38:00.004Z,99951.78
2023-02-09T00:40:26.315Z,99952.28
2023-02-09T00:42:52.972Z,99939.03
2023-02-09T00:45:19.313Z,99939.28
2023-02-09T00:47:45.637Z,99945.66
2023-02-09T00:50:11.956Z,99953.34
2023-02-09T00:52:38.273Z,99947.63
2023-02-09T00:55:04.698Z,99950.00
2023-02-09T00:57:31.056Z,99953.69
2023-02-09T00:59:57.382Z,99950.44
2023-02-09T01:02:23.696Z,99951.25
2023-02-09T01:04:50.097Z,99951.50
2023-02-09T01:07:16.424Z,99945.34
2023-02-09T01:09:42.766Z,99947.91
2023-02-09T01:12:09.094Z,99943.25
2023-02-09T01:14:35.445Z,99940.19
2023-02-09T01:17:01.886Z,99943.91
2023-02-09T01:19:28.227Z,99946.47
2023-02-09T01:21:54.544Z,99939.16
2023-02-09T01:24:20.859Z,99940.88
2023-02-09T01:26:47.167Z,99945.19
2023-02-09T01:29:14.073Z,99934.38
2023-02-09T01:31:40.734Z,99936.69
2023-02-09T01:34:07.205Z,99929.94
2023-02-09T01:36:33.538Z,99934.94
2023-02-09T01:39:00.321Z,99931.94
2023-02-09T01:41:26.730Z,99926.00
2023-02-09T01:43:57.352Z,99931.81
2023-02-09T01:46:24.125Z,99929.59
2023-02-09T01:48:51.297Z,99927.16
2023-02-09T01:51:17.614Z,99930.53
2023-02-09T01:53:44.500Z,99927.13
2023-02-09T01:56:16.783Z,99928.16
2023-02-09T01:58:43.242Z,99928.75
2023-02-09T02:01:09.603Z,99928.97
2023-02-09T02:03:35.930Z,99916.69
2023-02-09T02:06:03.691Z,99916.31
2023-02-09T02:08:46.878Z,99910.41
2023-02-09T02:11:13.193Z,99904.72
2023-02-09T02:13:39.545Z,99905.75
2023-02-09T02:16:24.734Z,99906.22
2023-02-09T02:22:42.704Z,99908.72
2023-02-09T02:25:27.513Z,99884.34
2023-02-09T02:28:08.994Z,99883.16
2023-02-09T02:30:38.669Z,99873.19
2023-02-09T02:33:14.224Z,99881.66
2023-02-09T02:35:44.547Z,99872.47
2023-02-09T02:38:16.219Z,99867.81
2023-02-09T02:40:45.867Z,99866.22
2023-02-09T02:43:22.988Z,99866.66
2023-02-09T02:45:53.845Z,99856.44
2023-02-09T02:48:32.969Z,99867.56
2023-02-09T02:51:00.346Z,99866.38
2023-02-09T02:53:28.087Z,99859.88
2023-02-09T02:55:54.824Z,99861.94
2023-02-09T02:58:21.375Z,99862.19
2023-02-09T03:00:48.865Z,99860.19
2023-02-09T03:03:19.631Z,99860.41
2023-02-09T03:05:45.926Z,99853.47
2023-02-09T03:08:12.219Z,99851.38
2023-02-09T03:10:39.241Z,99852.56
2023-02-09T03:13:08.509Z,99846.53
2023-02-09T03:15:40.269Z,99847.59
2023-02-09T03:18:21.308Z,99837.81
2023-02-09T03:20:47.702Z,99840.94
2023-02-09T03:23:16.566Z,99833.41
2023-02-09T03:25:43.798Z,99840.81
2023-02-09T03:28:30.373Z,99846.16
2023-02-09T03:30:57.080Z,99833.84
2023-02-09T03:33:24.424Z,99831.94
2023-02-09T03:35:51.946Z,99841.00
2023-02-09T03:38:18.267Z,99839.94
2023-02-09T03:40:44.831Z,99837.50
2023-02-09T03:43:11.430Z,99833.56
2023-02-09T03:45:38.019Z,99826.38
2023-02-09T03:48:05.323Z,99824.19
2023-02-09T03:50:32.289Z,99828.09
2023-02-09T03:52:59.608Z,99825.44
2023-02-09T03:55:25.935Z,99835.06
2023-02-09T03:57:52.245Z,99826.72
2023-02-09T04:00:18.647Z,99830.38
2023-02-09T04:02:44.998Z,99822.47
2023-02-09T04:05:11.777Z,99825.56
2023-02-09T04:07:38.341Z,99824.19
2023-02-09T04:10:05.308Z,99823.56
2023-02-09T04:12:31.702Z,99819.91
2023-02-09T04:14:58.012Z,99813.28
2023-02-09T04:17:24.333Z,99813.72
2023-02-09T04:19:50.644Z,99815.00
2023-02-09T04:22:16.957Z,99824.25
2023-02-09T04:24:43.266Z,99810.78
2023-02-09T04:27:09.575Z,99816.34
2023-02-09T04:29:35.903Z,99812.28
2023-02-09T04:32:02.341Z,99809.31
2023-02-09T04:34:28.670Z,99808.38
2023-02-09T04:36:55.013Z,99803.84
2023-02-09T04:39:21.339Z,99813.69
2023-02-09T04:41:47.657Z,99802.53
2023-02-09T04:44:14.060Z,99796.47
2023-02-09T04:46:40.673Z,99790.09
2023-02-09T04:49:06.983Z,99799.47
2023-02-09T04:51:33.305Z,99790.69
2023-02-09T04:53:59.623Z,99800.75
2023-02-09T04:56:25.938Z,99801.78
2023-02-09T04:59:10.736Z,99804.47
2023-02-09T05:01:37.064Z,99812.44
2023-02-09T05:04:03.408Z,99802.00
2023-02-09T05:06:29.734Z,99807.56
2023-02-09T05:08:56.047Z,99802.47
2023-02-09T05:11:24.693Z,99805.94
2023-02-09T05:13:51.785Z,99791.44
2023-02-09T05:16:18.220Z,99783.88
2023-02-09T05:18:44.623Z,99776.69
2023-02-09T05:21:10.969Z,99780.41
2023-02-09T05:23:37.280Z,99776.78
2023-02-09T05:26:03.932Z,99786.63
2023-02-09T05:28:30.285Z,99780.50
2023-02-09T05:30:56.737Z,99778.41
2023-02-09T05:33:23.365Z,99775.16
2023-02-09T05:35:52.729Z,99776.78
2023-02-09T05:38:19.063Z,99777.00
2023-02-09T05:40:45.522Z,99770.03
2023-02-09T05:43:11.873Z,99772.09
2023-02-09T05:45:38.229Z,99766.19
2023-02-09T05:48:04.546Z,99763.72
2023-02-09T05:50:30.846Z,99772.53
2023-02-09T05:53:00.100Z,99775.41
2023-02-09T05:55:26.439Z,99772.53
2023-02-09T05:57:52.751Z,99774.84
2023-02-09T06:00:19.236Z,99768.47
2023-02-09T06:02:45.638Z,99760.34
2023-02-09T06:05:11.989Z,99769.56
2023-02-09T06:07:38.455Z,99767.13
2023-02-09T06:10:04.810Z,99767.34
2023-02-09T06:12:31.126Z,99758.53
2023-02-09T06:14:57.428Z,99762.47
2023-02-09T06:17:23.838Z,99761.03
2023-02-09T06:19:50.150Z,99757.38
2023-02-09T06:22:16.455Z,99758.75
2023-02-09T06:24:42.776Z,99765.13
2023-02-09T06:27:09.111Z,99764.31
2023-02-09T06:29:35.702Z,99774.34
2023-02-09T06:32:02.182Z,99789.72
2023-02-09T06:34:28.636Z,99790.16
2023-02-09T06:36:54.967Z,99801.69
2023-02-09T06:39:21.282Z,99810.69
2023-02-09T06:41:47.607Z,99811.13
2023-02-09T06:44:14.068Z,99823.84
2023-02-09T06:46:40.644Z,99826.84
2023-02-09T06:49:07.011Z,99820.06
2023-02-09T06:51:33.563Z,99822.53
2023-02-09T06:53:59.933Z,99830.94
2023-02-09T06:56:26.253Z,99819.25
2023-02-09T06:58:52.661Z,99820.72
2023-02-09T07:01:19.040Z,99805.56
2023-02-09T07:03:45.428Z,99799.66
2023-02-09T07:06:12.566Z,99793.78
2023-02-09T07:08:39.093Z,99797.44
2023-02-09T07:11:06.081Z,99800.09
2023-02-09T07:13:32.763Z,99796.47
2023-02-09T07:15:59.459Z,99804.59
2023-02-09T07:18:25.845Z,99809.13
2023-02-09T07:20:55.984Z,99802.97
2023-02-09T07:23:22.325Z,99807.25
2023-02-09T07:25:48.817Z,99800.09
2023-02-09T07:28:15.204Z,99801.53
2023-02-09T07:30:42.061Z,99802.09
2023-02-09T07:33:08.583Z,99809.88
2023-02-09T07:35:35.034Z,99807.22
2023-02-09T07:38:01.363Z,99817.47
2023-02-09T07:40:27.898Z,99813.19
2023-02-09T07:42:54.235Z,99813.19
2023-02-09T07:45:20.536Z,99819.31
2023-02-09T07:47:47.122Z,99817.47
2023-02-09T07:50:13.444Z,99830.78
2023-02-09T07:52:39.990Z,99823.84
2023-02-09T07:55:06.503Z,99827.47
2023-02-09T07:57:32.967Z,99812.72
2023-02-09T07:59:59.297Z,99810.47
2023-02-09T08:02:26.756Z,99820.47
2023-02-09T08:04:53.118Z,99821.06
2023-02-09T08:07:19.460Z,99833.72
2023-02-09T08:09:46.514Z,99821.59
2023-02-09T08:12:12.890Z,99826.09
2023-02-09T08:14:44.235Z,99818.72
2023-02-09T08:17:20.752Z,99825.25
2023-02-09T08:19:51.621Z,99818.66
2023-02-09T08:22:17.993Z,99811.06
2023-02-09T08:24:44.301Z,99805.72
2023-02-09T08:27:10.769Z,99803.22
2023-02-09T08:29:37.115Z,99802.34
2023-02-09T08:32:03.493Z,99803.63
2023-02-09T08:34:30.096Z,99809.16
2023-02-09T08:36:56.425Z,99817.75
2023-02-09T08:39:22.747Z,99814.81
2023-02-09T08:41:49.171Z,99805.56
2023-02-09T08:44:15.622Z,99819.97
2023-02-09T08:46:42.111Z,99825.44
2023-02-09T08:49:08.514Z,99813.53
2023-02-09T08:51:34.880Z,99805.19
2023-02-09T08:54:01.209Z,99807.66
2023-02-09T08:56:27.522Z,99804.88
2023-02-09T08:58:53.876Z,99805.25
2023-02-09T09:01:20.241Z,99823.81
2023-02-09T09:03:46.725Z,99820.56
2023-02-09T09:06:13.175Z,99830.19
2023-02-09T09:08:39.598Z,99826.47
2023-02-09T09:11:12.876Z,99833.91
2023-02-09T09:13:39.862Z,99844.53
2023-02-09T09:16:06.615Z,99833.09
2023-02-09T09:18:33.050Z,99849.25
2023-02-09T09:20:59.363Z,99856.75
2023-02-09T09:23:25.752Z,99856.44
2023-02-09T09:25:52.113Z,99846.94
2023-02-09T09:28:18.506Z,99852.25
2023-02-09T09:30:44.898Z,99855.56
2023-02-09T09:33:11.325Z,99853.06
2023-02-09T09:35:37.807Z,99848.09
2023-02-09T09:38:04.662Z,99853.06
2023-02-09T09:40:31.701Z,99856.25
2023-02-09T09:42:58.486Z,99854.91
2023-02-09T09:45:25.867Z,99858.06
2023-02-09T09:47:52.253Z,99866.44
2023-02-09T09:50:20.534Z,99871.34
2023-02-09T09:52:51.433Z,99863.78
2023-02-09T09:55:22.360Z,99876.06
2023-02-09T09:57:48.701Z,99859.72
2023-02-09T10:00:19.302Z,99867.06
2023-02-09T10:02:45.693Z,99868.88
2023-02-09T10:05:11.920Z,99860.06
2023-02-09T10:07:38.245Z,99858.81
2023-02-09T10:10:27.117Z,99858.81
2023-02-09T10:12:53.458Z,99866.97
2023-02-09T10:15:25.862Z,99869.72
2023-02-09T10:17:52.264Z,99863.34
2023-02-09T10:20:18.640Z,99866.44
2023-02-09T10:22:45.769Z,99872.66
2023-02-09T10:25:30.880Z,99878.50
2023-02-09T10:27:57.256Z,99876.38
2023-02-09T10:30:27.122Z,99873.03
2023-02-09T10:32:53.527Z,99876.06
2023-02-09T10:35:24.600Z,99878.53
2023-02-09T10:37:55.141Z,99876.81
2023-02-09T10:40:26.192Z,99881.31
2023-02-09T10:42:56.174Z,99883.75
2023-02-09T10:45:27.260Z,99876.56
2023-02-09T10:47:57.713Z,99867.34
2023-02-09T10:50:24.030Z,99870.00
2023-02-09T10:52:55.558Z,99868.06
2023-02-09T10:55:26.099Z,99862.06
2023-02-09T10:57:52.639Z,99862.59
2023-02-09T11:00:18.890Z,99858.16
2023-02-09T11:02:48.273Z,99858.66
2023-02-09T11:05:20.607Z,99852.06
2023-02-09T11:08:05.599Z,99857.28
2023-02-09T11:10:32.176Z,99868.94
2023-02-09T11:12:58.599Z,99866.25
2023-02-09T11:15:28.312Z,99860.78
2023-02-09T11:17:55.592Z,99859.13
2023-02-09T11:20:33.295Z,99843.75
2023-02-09T11:23:03.142Z,99826.72
2023-02-09T11:25:34.060Z,99811.50
2023-02-09T11:28:12.632Z,99785.91
2023-02-09T11:30:42.067Z,99815.81
2023-02-09T11:33:34.737Z,99820.94
2023-02-09T11:36:08.947Z,99812.94
2023-02-09T11:38:37.016Z,99823.00
2023-02-09T11:41:23.327Z,99799.81
2023-02-09T11:43:49.640Z,99781.13
2023-02-09T11:46:17.071Z,99805.75
2023-02-09T11:48:44.642Z,99783.34
2023-02-09T11:51:14.992Z,99783.13
2023-02-09T11:53:47.019Z,99770.25
2023-02-09T11:56:17.124Z,99782.78
2023-02-09T11:59:09.839Z,99771.53
2023-02-09T12:01:44.076Z,99776.84
2023-02-09T12:04:24.962Z,99779.53
2023-02-09T12:06:52.489Z,99775.22
2023-02-09T12:09:27.240Z,99778.34
2023-02-09T12:12:08.849Z,99783.69
2023-02-09T12:14:39.077Z,99790.88
2023-02-09T12:17:08.363Z,99798.41
2023-02-09T12:19:35.325Z,99791.22
2023-02-09T12:22:20.217Z,99775.22
2023-02-09T12:25:04.122Z,99768.03
2023-02-09T12:27:30.676Z,99770.13
2023-02-09T12:29:56.992Z,99767.69
2023-02-09T12:32:24.475Z,99788.19
2023-02-09T12:34:52.753Z,99805.00
2023-02-09T12:37:20.119Z,99813.63
2023-02-09T12:40:12.753Z,99807.09
2023-02-09T12:42:40.336Z,99807.53
2023-02-09T12:45:26.586Z,99805.13
2023-02-09T12:48:13.265Z,99807.41
2023-02-09T12:50:42.624Z,99802.91
2023-02-09T12:53:30.969Z,99808.47
2023-02-09T12:55:57.195Z,99810.31
2023-02-09T12:58:33.514Z,99803.94
2023-02-09T13:00:59.875Z,99810.09
2023-02-09T13:03:26.340Z,99800.34
2023-02-09T13:05:54.160Z,99798.50
2023-02-09T13:08:22.409Z,99803.03
2023-02-09T13:11:17.674Z,99807.69
2023-02-09T13:13:47.085Z,99808.16
2023-02-09T13:16:22.480Z,99812.88
2023-02-09T13:19:00.724Z,99794.44
2023-02-09T13:21:39.216Z,99786.47
2023-02-09T13:24:08.472Z,99787.13
2023-02-09T13:26:35.688Z,99802.31
2023-02-09T13:29:19.749Z,99797.78
2023-02-09T13:31:50.094Z,99787.38
2023-02-09T13:34:18.684Z,99782.25
2023-02-09T13:36:47.250Z,99780.06
2023-02-09T13:39:21.727Z,99773.69
2023-02-09T13:41:49.862Z,99781.44
2023-02-09T13:44:23.241Z,99788.88
2023-02-09T13:46:53.382Z,99792.09
2023-02-09T13:49:21.787Z,99774.56
2023-02-09T13:52:07.016Z,99776.66
2023-02-09T13:54:33.359Z,99781.81
2023-02-09T13:57:00.269Z,99778.88
2023-02-09T13:59:26.609Z,99776.41
2023-02-09T14:01:53.402Z,99778.50
2023-02-09T14:04:20.956Z,99774.22
2023-02-09T14:06:47.740Z,99775.28
2023-02-09T14:09:15.708Z,99763.16
2023-02-09T14:11:44.033Z,99759.56
2023-02-09T14:14:10.298Z,99757.34
2023-02-09T14:16:44.673Z,99761.97
2023-02-09T14:19:28.028Z,99756.50
2023-02-09T14:21:54.491Z,99748.34
2023-02-09T14:24:24.489Z,99743.69
2023-02-09T14:26:53.831Z,99743.91
2023-02-09T14:29:26.959Z,99752.34
2023-02-09T14:31:54.533Z,99749.34
2023-02-09T14:34:25.218Z,99749.53
2023-02-09T14:36:52.597Z,99748.16
2023-02-09T14:39:21.870Z,99745.72
2023-02-09T14:41:57.622Z,99748.03
2023-02-09T14:44:24.004Z,99739.22
2023-02-09T14:46:57.152Z,99740.09
2023-02-09T14:49:23.597Z,99754.00
2023-02-09T14:51:50.749Z,99751.56
2023-02-09T14:54:18.562Z,99759.53
2023-02-09T14:56:44.911Z,99751.78
2023-02-09T14:59:14.579Z,99755.72
2023-02-09T15:01:40.940Z,99756.72
2023-02-09T15:04:07.423Z,99750.25
2023-02-09T15:06:35.470Z,99754.16
2023-02-09T15:09:02.308Z,99758.69
2023-02-09T15:11:47.308Z,99753.22
2023-02-09T15:14:13.870Z,99748.31
2023-02-09T15:16:40.249Z,99745.88
2023-02-09T15:19:16.986Z,99737.91
2023-02-09T15:21:43.317Z,99752.25
2023-02-09T15:24:09.631Z,99754.91
2023-02-09T15:26:35.983Z,99761.44
2023-02-09T15:29:02.355Z,99754.50
2023-02-09T15:31:28.760Z,99758.63
2023-02-09T15:33:55.195Z,99766.63
2023-02-09T15:36:21.517Z,99751.84
2023-02-09T15:38:48.071Z,99762.72
2023-02-09T15:41:35.623Z,99766.28
2023-02-09T15:44:30.344Z,99770.88
2023-02-09T15:47:15.436Z,99767.47
2023-02-09T15:49:41.744Z,99766.84
2023-02-09T15:52:08.073Z,99767.88
2023-02-09T15:54:34.426Z,99764.63
2023-02-09T15:57:00.757Z,99769.59
2023-02-09T15:59:27.086Z,99778.19
2023-02-09T16:01:53.726Z,99773.00
2023-02-09T16:04:20.085Z,99777.72
2023-02-09T16:06:48.684Z,99783.91
2023-02-09T16:09:18.966Z,99794.28
2023-02-09T16:11:45.289Z,99798.59
2023-02-09T16:14:21.506Z,99804.13
2023-02-09T16:16:47.914Z,99801.00
2023-02-09T16:19:14.451Z,99801.91
2023-02-09T16:21:44.000Z,99807.13
2023-02-09T16:24:14.876Z,99813.03
2023-02-09T16:26:41.244Z,99817.59
2023-02-09T16:29:10.903Z,99817.47
2023-02-09T16:31:37.275Z,99823.38
2023-02-09T16:34:03.686Z,99826.03
2023-02-09T16:36:30.345Z,99830.34
2023-02-09T16:38:56.788Z,99824.06
2023-02-09T16:41:41.885Z,99830.66
2023-02-09T16:44:13.856Z,99833.78
2023-02-09T16:46:40.200Z,99847.28
2023-02-09T16:49:06.520Z,99841.34
2023-02-09T16:51:33.829Z,99849.75
2023-02-09T16:54:00.150Z,99856.72
2023-02-09T16:56:27.480Z,99850.66
2023-02-09T16:58:53.812Z,99850.75
2023-02-09T17:01:20.655Z,99859.34
2023-02-09T17:03:48.024Z,99857.47
2023-02-09T17:06:21.641Z,99866.19
2023-02-09T17:08:48.066Z,99878.50
2023-02-09T17:11:18.404Z,99876.78
2023-02-09T17:13:44.721Z,99878.66
2023-02-09T17:16:15.718Z,99892.22
2023-02-09T17:18:42.328Z,99895.13
2023-02-09T17:21:10.139Z,99894.78
2023-02-09T17:23:36.948Z,99890.72
2023-02-09T17:26:03.397Z,99891.31
2023-02-09T17:28:29.845Z,99889.53
2023-02-09T17:30:59.757Z,99885.59
2023-02-09T17:33:27.161Z,99882.69
2023-02-09T17:36:23.594Z,99886.53
2023-02-09T17:38:44.151Z,99886.97
2023-02-09T17:41:17.628Z,99881.63
2023-02-09T17:43:44.054Z,99887.22
2023-02-09T17:46:13.621Z,99884.75
2023-02-09T17:48:40.242Z,99883.13
2023-02-09T17:51:09.538Z,99883.13
2023-02-09T17:53:35.900Z,99882.28
2023-02-09T17:56:02.541Z,99900.91
2023-02-09T17:58:28.931Z,99890.44
2023-02-09T18:00:56.078Z,99894.25
2023-02-09T18:03:23.010Z,99897.75
2023-02-09T18:05:55.894Z,99896.72
2023-02-09T18:08:22.447Z,99890.56
2023-02-09T18:10:48.890Z,99888.13
2023-02-09T18:13:15.764Z,99899.50
2023-02-09T18:15:43.144Z,99900.66
2023-02-09T18:18:09.472Z,99903.81
2023-02-09T18:20:36.087Z,99903.31
2023-02-09T18:23:03.056Z,99913.09
2023-02-09T18:25:36.087Z,99912.75
2023-02-09T18:28:02.616Z,99911.59
2023-02-09T18:30:30.259Z,99911.16
2023-02-09T18:32:56.897Z,99920.31
2023-02-09T18:35:36.386Z,99912.53
2023-02-09T18:38:03.064Z,99920.56
2023-02-09T18:40:29.492Z,99924.84
2023-02-09T18:42:55.809Z,99923.25
2023-02-09T18:45:22.125Z,99925.38
2023-02-09T18:47:48.743Z,99931.84
2023-02-09T18:50:16.006Z,99930.22
2023-02-09T18:52:49.294Z,99928.34
2023-02-09T18:55:15.661Z,99939.28
2023-02-09T18:57:42.247Z,99942.41
2023-02-09T19:00:09.220Z,99940.78
2023-02-09T19:02:35.682Z,99947.19
2023-02-09T19:05:04.264Z,99949.25
2023-02-09T19:07:30.975Z,99949.25
2023-02-09T19:09:57.284Z,99945.44
2023-02-09T19:12:23.655Z,99952.66
2023-02-09T19:14:50.087Z,99952.16
2023-02-09T19:17:16.978Z,99952.16
2023-02-09T19:19:44.439Z,99955.53
2023-02-09T19:22:12.987Z,99946.25
2023-02-09T19:24:39.288Z,99947.75
2023-02-09T19:27:06.800Z,99953.91
2023-02-09T19:29:33.431Z,99959.13
2023-02-09T19:31:59.751Z,99960.28
2023-02-09T19:34:29.852Z,99960.03
2023-02-09T19:36:56.184Z,99960.13
2023-02-09T19:39:22.500Z,99966.28
2023-02-09T19:41:49.141Z,99958.75
2023-02-09T19:44:15.502Z,99965.00
2023-02-09T19:46:42.617Z,99959.66
2023-02-09T19:49:09.169Z,99957.78
2023-02-09T19:51:35.599Z,99958.97
2023-02-09T19:54:02.320Z,99958.22
2023-02-09T19:56:28.686Z,99968.47
2023-02-09T19:58:54.991Z,99965.78
2023-02-09T20:01:21.669Z,99970.06
2023-02-09T20:03:49.389Z,99957.28
2023-02-09T20:06:16.029Z,99959.25
2023-02-09T20:08:42.624Z,99958.72
2023-02-09T20:11:10.253Z,99963.47
2023-02-09T20:13:36.666Z,99963.72
2023-02-09T20:16:09.450Z,99960.00
2023-02-09T20:18:35.810Z,99958.72
2023-02-09T20:21:02.255Z,99950.34
2023-02-09T20:23:28.592Z,99959.19
2023-02-09T20:25:54.907Z,99959.88
2023-02-09T20:28:21.267Z,99958.03
2023-02-09T20:30:48.242Z,99961.50
2023-02-09T20:33:14.840Z,99962.91
2023-02-09T20:35:41.572Z,99963.72
2023-02-09T20:38:07.916Z,99954.06
2023-02-09T20:40:34.328Z,99962.31
2023-02-09T20:43:19.095Z,99966.84
2023-02-09T20:46:04.324Z,99966.75
2023-02-09T20:48:30.658Z,99974.56
2023-02-09T20:50:56.977Z,99963.16
2023-02-09T20:53:23.323Z,99970.47
2023-02-09T20:55:49.676Z,99971.53
2023-02-09T20:58:16.007Z,99966.66
2023-02-09T21:00:42.560Z,99963.41
2023-02-09T21:03:08.970Z,99972.47
2023-02-09T21:05:35.295Z,99972.59
2023-02-09T21:08:04.292Z,99969.69
2023-02-09T21:10:35.336Z,99970.13
2023-02-09T21:13:05.535Z,99960.72
2023-02-09T21:15:31.975Z,99964.00
2023-02-09T21:17:58.297Z,99965.31
2023-02-09T21:20:24.624Z,99960.97
2023-02-09T21:22:50.961Z,99963.09
2023-02-09T21:25:18.444Z,99969.81
2023-02-09T21:27:44.770Z,99970.59
2023-02-09T21:30:11.396Z,99973.03
2023-02-09T21:32:38.458Z,99965.09
2023-02-09T21:35:09.918Z,99965.75
2023-02-09T21:37:37.756Z,99968.56
2023-02-09T21:40:05.196Z,99966.22
2023-02-09T21:42:32.690Z,99971.06
2023-02-09T21:44:59.480Z,99968.63
2023-02-09T21:47:26.557Z,99967.66
2023-02-09T21:49:52.960Z,99974.16
2023-02-09T21:52:19.307Z,99969.88
2023-02-09T21:54:45.635Z,99968.25
2023-02-09T21:57:11.978Z,99971.16
2023-02-09T21:59:38.298Z,99970.94
2023-02-09T22:02:04.628Z,99971.75
2023-02-09T22:04:31.004Z,99973.63
2023-02-09T22:06:57.424Z,99978.97
2023-02-09T22:09:25.242Z,99976.50
2023-02-09T22:11:51.600Z,99978.97
2023-02-09T22:14:17.915Z,99979.53
2023-02-09T22:16:44.337Z,99969.88
2023-02-09T22:19:10.735Z,99978.16
2023-02-09T22:21:37.052Z,99967.66
2023-02-09T22:24:03.366Z,99973.84
2023-02-09T22:26:29.684Z,99978.28
2023-02-09T22:28:55.994Z,99979.06
2023-02-09T22:31:22.412Z,99978.28
2023-02-09T22:33:53.093Z,99993.75
2023-02-09T22:36:19.414Z,99985.97
2023-02-09T22:38:45.747Z,99990.13
2023-02-09T22:41:21.274Z,99996.50
2023-02-09T22:43:48.852Z,99994.09
2023-02-09T22:46:15.182Z,100000.50
2023-02-09T22:48:41.504Z,100007.22
2023-02-09T22:51:07.941Z,100007.00
2023-02-09T22:53:34.303Z,100016.44
2023-02-09T22:56:03.859Z,100016.66
2023-02-09T22:58:30.395Z,100016.44
2023-02-09T23:00:56.934Z,100017.66
2023-02-09T23:03:23.237Z,100021.13
2023-02-09T23:05:49.731Z,100025.31
2023-02-09T23:08:16.124Z,100021.00
2023-02-09T23:10:42.438Z,100029.81
2023-02-09T23:13:08.779Z,100035.41
2023-02-09T23:15:35.135Z,100033.78
2023-02-09T23:18:01.517Z,100037.94
2023-02-09T23:20:27.818Z,100050.50
2023-02-09T23:22:56.509Z,100053.41
2023-02-09T23:25:24.304Z,100049.06
2023-02-09T23:27:50.642Z,100038.25
2023-02-09T23:30:17.016Z,100053.47
2023-02-09T23:32:43.588Z,100053.72
2023-02-09T23:35:09.911Z,100052.09
2023-02-09T23:40:04.560Z,100043.47
2023-02-09T23:42:30.867Z,100046.63
2023-02-09T23:44:57.272Z,100060.19
2023-02-09T23:47:23.592Z,100060.66
2023-02-09T23:49:50.584Z,100067.81
2023-02-09T23:52:16.906Z,100074.19
2023-02-09T23:54:43.228Z,100073.63
2023-02-09T23:57:09.537Z,100072.88
2023-02-09T23:59:35.853Z,100070.91
